createdAt,value
2019-02-14T00:02:04.962Z,36.91
2019-02-14T00:04:35.257Z,36.93
2019-02-14T00:07:05.502Z,37.00
2019-02-14T00:09:35.779Z,37.01
2019-02-14T00:12:06.026Z,37.00
2019-02-14T00:14:36.284Z,36.97
2019-02-14T00:17:06.498Z,37.03
2019-02-14T00:19:36.973Z,37.03
2019-02-14T00:22:07.339Z,37.05
2019-02-14T00:24:37.724Z,37.05
2019-02-14T00:27:08.026Z,37.07
2019-02-14T00:29:39.464Z,37.09
2019-02-14T00:32:09.695Z,37.07
2019-02-14T00:34:39.938Z,37.13
2019-02-14T00:37:10.280Z,37.13
2019-02-14T00:39:40.652Z,37.17
2019-02-14T00:42:10.959Z,37.17
2019-02-14T00:44:41.267Z,37.16
2019-02-14T00:47:11.694Z,37.19
2019-02-14T00:49:41.973Z,37.21
2019-02-14T00:52:12.241Z,37.21
2019-02-14T00:54:42.580Z,37.23
2019-02-14T00:57:12.806Z,37.23
2019-02-14T00:59:43.002Z,37.24
2019-02-14T01:02:13.366Z,37.28
2019-02-14T01:04:43.691Z,37.30
2019-02-14T01:07:13.934Z,37.27
2019-02-14T01:09:44.209Z,37.29
2019-02-14T01:12:14.517Z,37.29
2019-02-14T01:14:45.956Z,37.29
2019-02-14T01:17:16.222Z,37.26
2019-02-14T01:19:46.490Z,37.29
2019-02-14T01:22:16.981Z,37.29
2019-02-14T01:24:47.320Z,37.34
2019-02-14T01:27:17.649Z,37.32
2019-02-14T01:29:47.932Z,37.37
2019-02-14T01:32:21.342Z,37.34
2019-02-14T01:34:51.660Z,37.35
2019-02-14T01:37:24.432Z,37.38
2019-02-14T01:39:54.732Z,37.39
2019-02-14T01:42:25.039Z,37.40
2019-02-14T01:44:55.669Z,37.40
2019-02-14T01:47:26.376Z,37.45
2019-02-14T01:49:56.581Z,37.43
2019-02-14T01:52:26.910Z,37.49
2019-02-14T01:54:57.233Z,37.46
2019-02-14T01:57:29.113Z,37.43
2019-02-14T01:59:59.463Z,37.42
2019-02-14T02:02:29.791Z,37.42
2019-02-14T02:05:01.130Z,37.48
2019-02-14T02:07:31.490Z,37.54
2019-02-14T02:10:01.831Z,37.58
2019-02-14T02:12:32.432Z,37.58
2019-02-14T02:15:02.860Z,37.58
2019-02-14T02:17:33.222Z,37.57
2019-02-14T02:20:03.568Z,37.58
2019-02-14T02:22:33.930Z,37.65
2019-02-14T02:25:04.986Z,37.64
2019-02-14T02:27:35.371Z,37.62
2019-02-14T02:30:06.548Z,37.64
2019-02-14T02:32:39.838Z,37.61
2019-02-14T02:35:10.115Z,37.62
2019-02-14T02:37:40.587Z,37.58
2019-02-14T02:40:10.922Z,37.57
2019-02-14T02:42:41.320Z,37.59
2019-02-14T02:45:12.810Z,37.65
2019-02-14T02:47:43.165Z,37.63
2019-02-14T02:50:13.595Z,37.65
2019-02-14T02:52:44.000Z,37.65
2019-02-14T02:55:14.321Z,37.68
2019-02-14T02:57:44.796Z,37.62
2019-02-14T03:00:16.725Z,37.60
2019-02-14T03:02:47.995Z,37.46
2019-02-14T03:05:18.293Z,37.25
2019-02-14T03:07:51.686Z,37.11
2019-02-14T03:10:22.009Z,37.05
2019-02-14T03:12:52.437Z,36.91
2019-02-14T03:15:22.761Z,36.73
2019-02-14T03:17:53.037Z,36.67
2019-02-14T03:20:23.461Z,36.59
2019-02-14T03:22:54.089Z,36.49
2019-02-14T03:25:24.362Z,36.40
2019-02-14T03:27:56.509Z,36.36
2019-02-14T03:30:26.927Z,36.33
2019-02-14T03:32:57.314Z,36.25
2019-02-14T03:35:27.776Z,36.21
2019-02-14T03:37:58.115Z,36.12
2019-02-14T03:40:28.896Z,36.07
2019-02-14T03:43:06.733Z,36.05
2019-02-14T03:45:37.119Z,35.96
2019-02-14T03:48:07.463Z,35.88
2019-02-14T03:50:37.804Z,35.83
2019-02-14T03:53:08.205Z,35.76
2019-02-14T03:55:38.566Z,35.73
2019-02-14T03:58:09.272Z,35.75
2019-02-14T04:00:39.584Z,35.71
2019-02-14T04:03:09.923Z,35.67
2019-02-14T04:05:40.184Z,35.54
2019-02-14T04:08:10.468Z,35.53
2019-02-14T04:10:40.747Z,35.59
2019-02-14T04:13:11.057Z,35.71
2019-02-14T04:15:44.286Z,35.80
2019-02-14T04:18:15.388Z,35.88
2019-02-14T04:20:45.798Z,35.97
2019-02-14T04:23:17.924Z,36.05
2019-02-14T04:25:48.188Z,36.09
2019-02-14T04:28:18.629Z,36.16
2019-02-14T04:30:50.348Z,36.22
2019-02-14T04:33:21.012Z,36.24
2019-02-14T04:35:51.666Z,36.25
2019-02-14T04:38:22.186Z,36.26
2019-02-14T04:40:52.677Z,36.27
2019-02-14T04:43:23.006Z,36.28
2019-02-14T04:45:53.365Z,36.35
2019-02-14T04:48:23.802Z,36.36
2019-02-14T04:50:54.059Z,36.44
2019-02-14T04:53:24.440Z,36.39
2019-02-14T04:55:54.664Z,36.33
2019-02-14T04:58:25.066Z,36.22
2019-02-14T05:00:55.923Z,36.33
2019-02-14T05:03:26.201Z,36.40
2019-02-14T05:05:56.574Z,36.45
2019-02-14T05:08:26.865Z,36.44
2019-02-14T05:10:57.095Z,36.50
2019-02-14T05:13:27.441Z,36.49
2019-02-14T05:15:57.731Z,36.54
2019-02-14T05:18:28.113Z,36.59
2019-02-14T05:20:58.467Z,36.59
2019-02-14T05:23:28.916Z,36.61
2019-02-14T05:25:59.197Z,36.63
2019-02-14T05:28:29.583Z,36.66
2019-02-14T05:30:59.831Z,36.64
2019-02-14T05:33:30.692Z,36.64
2019-02-14T05:36:00.972Z,36.67
2019-02-14T05:38:31.327Z,36.70
2019-02-14T05:41:01.628Z,36.68
2019-02-14T05:43:32.119Z,36.66
2019-02-14T05:46:02.421Z,36.63
2019-02-14T05:48:32.810Z,36.68
2019-02-14T05:51:05.558Z,36.65
2019-02-14T05:53:35.953Z,36.63
2019-02-14T05:56:06.268Z,36.70
2019-02-14T05:58:38.870Z,36.68
2019-02-14T06:01:10.898Z,36.71
2019-02-14T06:03:41.235Z,36.66
2019-02-14T06:06:11.608Z,36.66
2019-02-14T06:08:41.931Z,36.65
2019-02-14T06:11:12.310Z,36.62
2019-02-14T06:13:42.608Z,36.58
2019-02-14T06:16:12.901Z,36.64
2019-02-14T06:18:43.310Z,36.63
2019-02-14T06:21:13.587Z,36.60
2019-02-14T06:23:43.893Z,36.60
2019-02-14T06:26:14.193Z,36.57
2019-02-14T06:28:44.783Z,36.61
2019-02-14T06:31:15.081Z,36.58
2019-02-14T06:33:45.784Z,36.52
2019-02-14T06:36:16.059Z,36.49
2019-02-14T06:38:48.443Z,36.47
2019-02-14T06:41:18.717Z,36.42
2019-02-14T06:43:49.129Z,36.40
2019-02-14T06:46:19.409Z,36.36
2019-02-14T06:48:49.695Z,36.38
2019-02-14T06:51:20.117Z,36.35
2019-02-14T06:53:50.477Z,36.31
2019-02-14T06:56:24.517Z,36.31
2019-02-14T06:58:58.626Z,36.26
2019-02-14T07:01:28.927Z,36.23
2019-02-14T07:03:59.355Z,36.25
2019-02-14T07:06:29.680Z,36.22
2019-02-14T07:09:00.013Z,36.22
2019-02-14T07:11:34.521Z,36.24
2019-02-14T07:14:05.152Z,36.22
2019-02-14T07:16:35.550Z,36.20
2019-02-14T07:19:05.861Z,36.14
2019-02-14T07:21:36.191Z,36.12
2019-02-14T07:24:06.502Z,36.09
2019-02-14T07:26:36.855Z,36.08
2019-02-14T07:29:08.122Z,36.08
2019-02-14T07:31:40.820Z,36.06
2019-02-14T07:34:11.128Z,36.05
2019-02-14T07:36:41.537Z,36.05
2019-02-14T07:39:12.015Z,36.07
2019-02-14T07:41:42.305Z,36.01
2019-02-14T07:44:12.734Z,35.96
2019-02-14T07:49:12.126Z,35.94
2019-02-14T07:51:42.502Z,35.98
2019-02-14T07:54:12.787Z,35.96
2019-02-14T07:59:12.074Z,35.87
2019-02-14T08:01:42.370Z,35.87
2019-02-14T08:04:12.647Z,35.89
2019-02-14T08:06:43.039Z,35.92
2019-02-14T08:09:13.377Z,35.87
2019-02-14T08:11:43.732Z,35.81
2019-02-14T08:14:14.991Z,35.78
2019-02-14T08:16:45.363Z,35.83
2019-02-14T08:19:15.797Z,35.80
2019-02-14T08:21:46.249Z,35.78
2019-02-14T08:24:16.527Z,35.76
2019-02-14T08:26:46.916Z,35.75
2019-02-14T08:29:17.318Z,35.73
2019-02-14T08:31:47.807Z,35.76
2019-02-14T08:34:18.193Z,35.75
2019-02-14T08:36:48.467Z,35.73
2019-02-14T08:39:18.844Z,35.75
2019-02-14T08:41:49.289Z,35.74
2019-02-14T08:44:19.664Z,35.71
2019-02-14T08:46:49.986Z,35.75
2019-02-14T08:49:20.259Z,35.73
2019-02-14T08:51:50.510Z,35.68
2019-02-14T08:54:20.869Z,35.71
2019-02-14T08:56:51.232Z,35.68
2019-02-14T08:59:21.481Z,35.71
2019-02-14T09:01:51.844Z,35.67
2019-02-14T09:04:22.197Z,35.66
2019-02-14T09:06:52.543Z,35.70
2019-02-14T09:09:22.750Z,35.70
2019-02-14T09:11:53.065Z,35.68
2019-02-14T09:14:23.321Z,35.68
2019-02-14T09:16:53.646Z,35.66
2019-02-14T09:19:23.934Z,35.66
2019-02-14T09:21:55.035Z,35.73
2019-02-14T09:24:26.313Z,35.72
2019-02-14T09:26:56.646Z,35.69
2019-02-14T09:29:26.912Z,35.71
2019-02-14T09:31:57.319Z,35.71
2019-02-14T09:34:27.535Z,35.69
2019-02-14T09:36:57.841Z,35.73
2019-02-14T09:39:28.108Z,35.76
2019-02-14T09:41:59.257Z,35.75
2019-02-14T09:44:29.577Z,35.75
2019-02-14T09:46:59.831Z,35.77
2019-02-14T09:49:30.046Z,35.79
2019-02-14T09:52:00.470Z,35.74
2019-02-14T09:54:31.102Z,35.73
2019-02-14T09:57:01.429Z,35.79
2019-02-14T09:59:31.715Z,35.75
2019-02-14T10:02:02.047Z,35.74
2019-02-14T10:04:32.647Z,35.79
2019-02-14T10:07:03.012Z,35.80
2019-02-14T10:09:33.365Z,35.82
2019-02-14T10:12:03.666Z,35.85
2019-02-14T10:14:35.842Z,35.85
2019-02-14T10:17:06.045Z,35.86
2019-02-14T10:19:36.443Z,35.87
2019-02-14T10:22:06.850Z,35.94
2019-02-14T10:24:38.749Z,35.89
2019-02-14T10:27:09.258Z,35.90
2019-02-14T10:29:39.619Z,35.90
2019-02-14T10:32:10.030Z,35.93
2019-02-14T10:34:40.352Z,35.97
2019-02-14T10:37:10.774Z,35.92
2019-02-14T10:39:41.101Z,35.90
2019-02-14T10:42:11.472Z,35.96
2019-02-14T10:44:41.771Z,35.99
2019-02-14T10:47:12.183Z,35.96
2019-02-14T10:49:42.481Z,35.97
2019-02-14T10:52:12.811Z,35.97
2019-02-14T10:54:43.202Z,36.00
2019-02-14T10:57:13.500Z,36.05
2019-02-14T10:59:44.096Z,36.00
2019-02-14T11:02:14.795Z,35.99
2019-02-14T11:04:47.036Z,36.02
2019-02-14T11:07:17.173Z,36.07
2019-02-14T11:09:47.527Z,36.08
2019-02-14T11:12:17.823Z,36.05
2019-02-14T11:14:48.249Z,36.07
2019-02-14T11:17:18.605Z,36.09
2019-02-14T11:19:49.032Z,36.07
2019-02-14T11:22:19.390Z,36.08
2019-02-14T11:24:49.747Z,36.10
2019-02-14T11:27:20.091Z,36.08
2019-02-14T11:29:52.994Z,36.11
2019-02-14T11:32:23.296Z,36.15
2019-02-14T11:34:53.762Z,36.12
2019-02-14T11:37:25.770Z,36.14
2019-02-14T11:39:56.214Z,36.11
2019-02-14T11:42:26.641Z,36.15
2019-02-14T11:44:56.966Z,36.16
2019-02-14T11:47:27.275Z,36.15
2019-02-14T11:49:57.595Z,36.17
2019-02-14T11:52:28.077Z,36.17
2019-02-14T11:54:59.443Z,36.19
2019-02-14T11:57:29.770Z,36.21
2019-02-14T12:00:00.102Z,36.21
2019-02-14T12:02:30.501Z,36.24
2019-02-14T12:05:00.816Z,36.21
2019-02-14T12:07:31.246Z,36.18
2019-02-14T12:10:02.131Z,36.20
2019-02-14T12:12:32.512Z,36.20
2019-02-14T12:15:02.868Z,36.19
2019-02-14T12:17:33.191Z,36.17
2019-02-14T12:20:03.589Z,36.20
2019-02-14T12:22:35.514Z,36.20
2019-02-14T12:25:08.640Z,36.23
2019-02-14T12:27:39.027Z,36.25
2019-02-14T12:30:11.574Z,36.25
2019-02-14T12:32:41.942Z,36.24
2019-02-14T12:35:12.272Z,36.28
2019-02-14T12:37:42.571Z,36.29
2019-02-14T12:40:13.291Z,36.30
2019-02-14T12:42:44.223Z,36.32
2019-02-14T12:45:21.625Z,36.29
2019-02-14T12:47:51.662Z,36.30
2019-02-14T12:50:21.942Z,36.31
2019-02-14T12:52:52.538Z,36.32
2019-02-14T12:55:22.913Z,36.35
2019-02-14T12:57:53.275Z,36.37
2019-02-14T13:00:24.363Z,36.37
2019-02-14T13:02:54.605Z,36.35
2019-02-14T13:05:25.209Z,36.39
2019-02-14T13:07:55.514Z,36.41
2019-02-14T13:10:26.556Z,36.45
2019-02-14T13:12:57.932Z,36.44
2019-02-14T13:15:29.031Z,36.45
2019-02-14T13:17:59.363Z,36.47
2019-02-14T13:20:29.752Z,36.50
2019-02-14T13:23:03.215Z,36.52
2019-02-14T13:25:33.562Z,36.54
2019-02-14T13:28:03.920Z,36.58
2019-02-14T13:30:35.293Z,36.63
2019-02-14T13:33:05.689Z,36.61
2019-02-14T13:35:35.957Z,36.64
2019-02-14T13:38:06.528Z,36.67
2019-02-14T13:40:37.446Z,36.80
2019-02-14T13:43:10.176Z,36.83
2019-02-14T13:45:39.671Z,36.85
2019-02-14T13:48:10.681Z,36.87
2019-02-14T13:50:42.117Z,36.95
2019-02-14T13:53:12.484Z,36.94
2019-02-14T13:55:42.802Z,36.20
2019-02-14T13:58:15.124Z,35.63
2019-02-14T14:00:45.358Z,35.76
2019-02-14T14:03:15.617Z,35.86
2019-02-14T14:05:46.348Z,35.89
2019-02-14T14:08:16.615Z,35.94
2019-02-14T14:10:47.751Z,35.99
2019-02-14T14:13:18.286Z,36.08
2019-02-14T14:15:48.661Z,36.11
2019-02-14T14:18:18.966Z,36.18
2019-02-14T14:20:49.837Z,36.21
2019-02-14T14:23:20.080Z,36.22
2019-02-14T14:25:50.493Z,36.27
2019-02-14T14:28:20.766Z,36.31
2019-02-14T14:30:51.061Z,36.33
2019-02-14T14:33:21.455Z,36.36
2019-02-14T14:35:52.093Z,36.40
2019-02-14T14:38:22.481Z,36.41
2019-02-14T14:40:55.032Z,36.47
2019-02-14T14:43:36.354Z,36.50
2019-02-14T14:46:19.924Z,36.54
2019-02-14T14:48:50.342Z,36.55
2019-02-14T14:51:20.690Z,36.61
2019-02-14T14:53:50.983Z,36.62
2019-02-14T14:56:21.421Z,36.65
2019-02-14T14:58:51.731Z,36.65
2019-02-14T15:01:21.972Z,36.62
2019-02-14T15:03:52.393Z,36.66
2019-02-14T15:06:22.750Z,36.71
2019-02-14T15:08:53.067Z,36.71
2019-02-14T15:11:23.344Z,36.73
2019-02-14T15:13:53.863Z,36.81
2019-02-14T15:16:24.235Z,36.79
2019-02-14T15:18:54.647Z,36.81
2019-02-14T15:21:24.904Z,36.86
2019-02-14T15:23:55.597Z,36.86
2019-02-14T15:26:25.969Z,36.87
2019-02-14T15:28:56.290Z,36.93
2019-02-14T15:31:26.671Z,36.91
2019-02-14T15:33:57.053Z,36.92
2019-02-14T15:36:28.283Z,36.96
2019-02-14T15:38:59.673Z,36.98
2019-02-14T15:41:31.725Z,37.00
2019-02-14T15:44:02.007Z,36.99
2019-02-14T15:46:32.312Z,36.99
2019-02-14T15:49:02.638Z,37.02
2019-02-14T15:51:32.978Z,37.02
2019-02-14T15:54:03.360Z,37.05
2019-02-14T15:56:35.196Z,37.08
2019-02-14T15:59:06.072Z,37.10
2019-02-14T16:01:36.490Z,37.09
2019-02-14T16:04:07.362Z,37.09
2019-02-14T16:06:37.851Z,37.11
2019-02-14T16:09:08.451Z,37.11
2019-02-14T16:11:38.886Z,37.09
2019-02-14T16:14:09.225Z,37.12
2019-02-14T16:16:39.587Z,37.14
2019-02-14T16:19:10.868Z,37.15
2019-02-14T16:21:41.882Z,37.17
2019-02-14T16:24:12.196Z,37.16
2019-02-14T16:26:42.570Z,37.17
2019-02-14T16:29:13.548Z,37.18
2019-02-14T16:31:45.774Z,37.19
2019-02-14T16:34:16.069Z,37.18
2019-02-14T16:36:46.374Z,37.18
2019-02-14T16:39:16.800Z,37.19
2019-02-14T16:41:47.114Z,37.20
2019-02-14T16:44:19.440Z,37.18
2019-02-14T16:46:49.474Z,37.19
2019-02-14T16:49:21.330Z,37.20
2019-02-14T16:51:51.944Z,37.20
2019-02-14T16:54:22.311Z,37.20
2019-02-14T16:56:52.614Z,37.26
2019-02-14T16:59:25.085Z,37.18
2019-02-14T17:01:55.441Z,37.19
2019-02-14T17:04:25.732Z,37.19
2019-02-14T17:06:57.064Z,37.16
2019-02-14T17:09:27.323Z,37.15
2019-02-14T17:11:57.700Z,37.15
2019-02-14T17:14:28.376Z,37.15
2019-02-14T17:16:58.751Z,37.17
2019-02-14T17:19:31.473Z,37.18
2019-02-14T17:22:02.729Z,37.18
2019-02-14T17:24:33.119Z,37.18
2019-02-14T17:27:03.431Z,37.18
2019-02-14T17:29:33.765Z,37.14
2019-02-14T17:32:06.172Z,37.14
2019-02-14T17:34:36.466Z,37.13
2019-02-14T17:37:06.952Z,37.14
2019-02-14T17:39:37.447Z,37.12
2019-02-14T17:42:07.913Z,37.11
2019-02-14T17:44:38.246Z,37.11
2019-02-14T17:47:09.553Z,37.11
2019-02-14T17:49:39.887Z,37.12
2019-02-14T17:52:10.299Z,37.10
2019-02-14T17:54:40.845Z,37.09
2019-02-14T17:57:11.286Z,37.07
2019-02-14T17:59:41.641Z,37.08
2019-02-14T18:02:11.976Z,37.08
2019-02-14T18:04:42.251Z,37.05
2019-02-14T18:07:12.685Z,37.05
2019-02-14T18:09:43.115Z,37.05
2019-02-14T18:12:13.417Z,37.05
2019-02-14T18:14:43.790Z,37.06
2019-02-14T18:17:14.247Z,37.06
2019-02-14T18:19:44.662Z,37.02
2019-02-14T18:22:15.114Z,37.02
2019-02-14T18:24:45.482Z,37.04
2019-02-14T18:27:15.746Z,37.02
2019-02-14T18:29:46.238Z,37.00
2019-02-14T18:32:16.624Z,36.98
2019-02-14T18:34:47.892Z,36.98
2019-02-14T18:37:18.344Z,36.97
2019-02-14T18:39:48.666Z,36.96
2019-02-14T18:42:19.054Z,36.95
2019-02-14T18:44:49.800Z,36.92
2019-02-14T18:47:20.155Z,36.90
2019-02-14T18:49:50.594Z,36.91
2019-02-14T18:52:20.969Z,36.90
2019-02-14T18:54:51.354Z,36.90
2019-02-14T18:57:21.693Z,36.89
2019-02-14T18:59:52.004Z,36.86
2019-02-14T19:02:22.808Z,36.82
2019-02-14T19:04:53.441Z,36.83
2019-02-14T19:07:23.900Z,36.82
2019-02-14T19:09:54.823Z,36.81
2019-02-14T19:12:27.375Z,36.83
2019-02-14T19:14:57.861Z,36.80
2019-02-14T19:17:28.373Z,36.80
2019-02-14T19:19:58.876Z,36.77
2019-02-14T19:22:32.220Z,36.76
2019-02-14T19:25:02.718Z,36.71
2019-02-14T19:27:33.166Z,36.70
2019-02-14T19:30:05.989Z,36.69
2019-02-14T19:32:36.922Z,36.69
2019-02-14T19:35:08.344Z,36.67
2019-02-14T19:37:39.859Z,36.67
2019-02-14T19:40:14.593Z,36.62
2019-02-14T19:42:45.104Z,36.61
2019-02-14T19:45:16.005Z,36.60
2019-02-14T19:47:48.077Z,36.57
2019-02-14T19:50:20.819Z,36.53
2019-02-14T19:52:53.561Z,36.57
2019-02-14T19:55:24.018Z,36.56
2019-02-14T19:57:54.384Z,36.53
2019-02-14T20:00:25.507Z,36.51
2019-02-14T20:02:55.898Z,36.46
2019-02-14T20:05:27.134Z,36.46
2019-02-14T20:07:57.421Z,36.44
2019-02-14T20:10:27.824Z,36.46
2019-02-14T20:12:58.192Z,36.44
2019-02-14T20:15:36.765Z,36.41
2019-02-14T20:18:04.294Z,36.35
2019-02-14T20:20:36.275Z,36.36
2019-02-14T20:23:06.953Z,36.35
2019-02-14T20:25:41.640Z,36.35
2019-02-14T20:28:13.867Z,36.36
2019-02-14T20:30:44.326Z,36.29
2019-02-14T20:33:15.059Z,36.30
2019-02-14T20:35:46.289Z,36.25
2019-02-14T20:38:17.735Z,36.23
2019-02-14T20:40:48.443Z,36.22
2019-02-14T20:43:19.975Z,34.02
2019-02-14T20:45:50.737Z,33.82
2019-02-14T20:48:24.172Z,34.39
2019-02-14T20:50:55.623Z,34.02
2019-02-14T20:53:26.633Z,34.31
2019-02-14T20:55:56.900Z,34.39
2019-02-14T20:58:27.308Z,34.76
2019-02-14T21:00:58.196Z,34.87
2019-02-14T21:03:28.468Z,35.00
2019-02-14T21:05:58.784Z,35.08
2019-02-14T21:08:29.402Z,35.19
2019-02-14T21:11:00.065Z,35.31
2019-02-14T21:13:30.602Z,35.44
2019-02-14T21:16:03.462Z,35.66
2019-02-14T21:18:33.771Z,35.93
2019-02-14T21:21:04.139Z,36.16
2019-02-14T21:23:39.128Z,36.41
2019-02-14T21:26:09.455Z,36.58
2019-02-14T21:28:41.092Z,36.78
2019-02-14T21:31:11.351Z,36.87
2019-02-14T21:33:41.765Z,37.03
2019-02-14T21:36:15.729Z,37.08
2019-02-14T21:38:48.939Z,37.15
2019-02-14T21:41:19.275Z,37.20
2019-02-14T21:43:51.910Z,37.18
2019-02-14T21:46:22.153Z,37.16
2019-02-14T21:48:52.511Z,37.15
2019-02-14T21:51:24.891Z,37.12
2019-02-14T21:53:55.275Z,37.13
2019-02-14T21:56:25.623Z,37.13
2019-02-14T21:58:55.924Z,37.09
2019-02-14T22:01:27.835Z,37.12
2019-02-14T22:03:58.219Z,37.13
2019-02-14T22:06:28.473Z,37.12
2019-02-14T22:08:58.854Z,37.11
2019-02-14T22:11:33.909Z,37.09
2019-02-14T22:14:01.208Z,37.15
2019-02-14T22:16:32.345Z,37.08
2019-02-14T22:19:04.523Z,37.16
2019-02-14T22:21:34.935Z,37.13
2019-02-14T22:24:05.304Z,37.19
2019-02-14T22:29:06.136Z,37.19
2019-02-14T22:31:36.430Z,37.21
2019-02-14T22:34:06.799Z,37.22
2019-02-14T22:36:37.139Z,37.21
2019-02-14T22:39:07.431Z,37.27
2019-02-14T22:41:39.351Z,37.23
2019-02-14T22:44:09.658Z,37.22
2019-02-14T22:46:40.126Z,37.22
2019-02-14T22:49:10.554Z,37.19
2019-02-14T22:51:40.927Z,37.23
2019-02-14T22:54:11.166Z,37.23
2019-02-14T22:56:41.548Z,37.29
2019-02-14T22:59:11.891Z,37.29
2019-02-14T23:01:42.226Z,37.28
2019-02-14T23:04:12.491Z,37.24
2019-02-14T23:06:42.880Z,37.27
2019-02-14T23:09:13.194Z,37.29
2019-02-14T23:11:43.509Z,37.26
2019-02-14T23:14:13.908Z,37.25
2019-02-14T23:16:44.145Z,37.32
2019-02-14T23:19:14.451Z,37.30
2019-02-14T23:21:44.784Z,37.29
2019-02-14T23:24:15.207Z,37.28
2019-02-14T23:26:45.540Z,37.29
2019-02-14T23:29:15.921Z,37.28
2019-02-14T23:31:46.314Z,37.35
2019-02-14T23:34:17.058Z,37.32
2019-02-14T23:36:47.355Z,37.24
2019-02-14T23:39:17.749Z,37.24
2019-02-14T23:41:48.254Z,37.25
2019-02-14T23:44:18.535Z,37.23
2019-02-14T23:46:48.899Z,37.27
2019-02-14T23:49:19.158Z,37.29
2019-02-14T23:51:49.484Z,37.31
2019-02-14T23:54:19.779Z,37.25
2019-02-14T23:56:50.040Z,37.28
2019-02-14T23:59:20.418Z,37.26
